CheckWX is a tool to help pilots better visualize weather data.  It is not intended as a substitute for an official pre-flight weather briefing.

02:09:36 UTC

KPIH METAR
Pocatello Regional Airport
Pocatello, Idaho, USA
Current

17 mins ago

KPIH 180153Z 04006KT 10SM CLR M05/M07 A2989 RMK AO2 SLP153 T10501072
Observed
Feb-18 @ 01:53 UTC
Wind
  • 040° at 6 KTS
Visibility
10 SM
Flight Rules
VFR
Cloud Levels
  • Clear skies
Temperature
-5°C / 23°F
Dewpoint
-7°C / 19°F
Humidity
86%
Altimeter
29.89" Hg
Pressure
1015.3 hPa
Previous

1 hour ago

KPIH 180053Z 03006KT 10SM FEW050 M03/M07 A2987 RMK AO2 SLP145 T10331067
Observed
Feb-18 @ 00:53 UTC
Wind
  • 030° at 6 KTS
Visibility
10 SM
Flight Rules
VFR
Cloud Levels
  • Few at 5,000' AGL
Temperature
-3°C / 27°F
Dewpoint
-7°C / 19°F
Humidity
74%
Altimeter
29.87" Hg
Pressure
1014.5 hPa
Previous

2 hours ago

KPIH 172353Z 04009KT 10SM FEW050 M02/M06 A2986 RMK AO2 SLP136 T10171061 10000 21022 51003
Observed
Feb-17 @ 23:53 UTC
Wind
  • 040° at 9 KTS
Visibility
10 SM
Flight Rules
VFR
Cloud Levels
  • Few at 5,000' AGL
Temperature
-2°C / 28°F
Dewpoint
-6°C / 21°F
Humidity
74%
Altimeter
29.86" Hg
Pressure
1013.6 hPa